Time;durP1;ratioP1;P1;durP2;ratioP2;P2;SDS_P1;SDS_P2;PMS_P1;PMS_P2;Temp;Humidity;BMP_temperature;BMP_pressure;BME280_temperature;BME280_humidity;BME280_pressure;Samples;Min_cycle;Max_cycle;Signal;HPM_P1;HPM_P2
2022/08/22 00:03:35;;;;;;;;;;;;;;;22.86;49.26;95544.59;10322438;28;2599;-52
2022/08/22 00:08:35;;;;;;;;;;;;;;;22.82;49.17;95541.75;10322221;28;2623;-51
2022/08/22 00:13:39;;;;;;;;;;;;;;;22.81;49.35;95534.94;10324086;28;2607;-51
2022/08/22 00:18:43;;;;;;;;;;;;;;;22.79;49.29;95536.28;10320371;28;2176;-48
2022/08/22 00:23:48;;;;;;;;;;;;;;;22.80;49.28;95545.78;10322737;28;2636;-52
2022/08/22 00:28:50;;;;;;;;;;;;;;;22.77;49.34;95551.66;10336331;28;2195;-48
2022/08/22 00:33:53;;;;;;;;;;;;;;;22.81;49.32;95544.72;10320918;28;2755;-50
2022/08/22 00:38:59;;;;;;;;;;;;;;;22.80;49.13;95541.28;10320928;28;2913;-50
2022/08/22 00:44:14;;;;;;;;;;;;;;;22.78;49.17;95537.34;10320815;28;2195;-50
2022/08/22 00:49:36;;;;;;;;;;;;;;;22.74;49.17;95545.09;10321043;28;2513;-49
2022/08/22 00:54:40;;;;;;;;;;;;;;;22.74;48.76;95544.28;10318040;28;2650;-52
2022/08/22 00:59:40;;;;;;;;;;;;;;;22.74;49.08;95546.94;10316485;28;2534;-50
2022/08/22 01:04:41;;;;;;;;;;;;;;;22.75;48.78;95545.88;10322198;28;2251;-49
2022/08/22 01:09:57;;;;;;;;;;;;;;;22.75;48.51;95546.63;10320257;28;2614;-51
2022/08/22 01:15:02;;;;;;;;;;;;;;;22.74;48.44;95544.28;10325837;28;2939;-50
2022/08/22 01:20:09;;;;;;;;;;;;;;;22.72;48.75;95549.88;10327562;28;2168;-52
2022/08/22 01:25:37;;;;;;;;;;;;;;;22.65;48.54;95530.97;10328845;28;2153;-48
2022/08/22 01:30:56;;;;;;;;;;;;;;;22.58;48.48;95525.31;10317768;28;2744;-52
2022/08/22 01:35:58;;;;;;;;;;;;;;;22.49;48.31;95519.88;10327459;28;2607;-50
2022/08/22 01:41:17;;;;;;;;;;;;;;;22.49;48.45;95527.78;10329058;28;2152;-51
2022/08/22 01:46:31;;;;;;;;;;;;;;;22.52;48.37;95532.47;10329714;28;2636;-52
2022/08/22 01:51:42;;;;;;;;;;;;;;;22.54;48.46;95537.50;10327793;28;2613;-49
2022/08/22 01:56:43;;;;;;;;;;;;;;;22.53;48.25;95536.69;10326143;28;2601;-51
2022/08/22 02:01:58;;;;;;;;;;;;;;;22.52;47.87;95535.13;10328436;28;2613;-49
2022/08/22 02:07:03;;;;;;;;;;;;;;;22.55;48.07;95529.28;10323168;28;2599;-51
2022/08/22 02:12:09;;;;;;;;;;;;;;;22.53;47.93;95528.78;10326973;28;2612;-51
2022/08/22 02:17:16;;;;;;;;;;;;;;;22.46;47.83;95528.34;10325252;28;2565;-49
2022/08/22 02:22:33;;;;;;;;;;;;;;;22.47;48.02;95529.94;10326943;28;2682;-52
2022/08/22 02:27:53;;;;;;;;;;;;;;;22.48;47.89;95536.78;10324591;28;2723;-51
2022/08/22 02:33:03;;;;;;;;;;;;;;;22.49;47.93;95537.56;10323779;28;2550;-51
2022/08/22 02:38:06;;;;;;;;;;;;;;;22.48;48.01;95536.00;10326857;28;2236;-51
2022/08/22 02:43:08;;;;;;;;;;;;;;;22.43;47.69;95541.38;10323961;28;2604;-51
2022/08/22 02:48:27;;;;;;;;;;;;;;;22.41;47.81;95554.09;10325006;28;2621;-51
2022/08/22 02:53:31;;;;;;;;;;;;;;;22.33;47.87;95542.34;10325234;28;2159;-50
2022/08/22 02:58:37;;;;;;;;;;;;;;;22.39;47.68;95543.81;10323672;28;2580;-50
2022/08/22 03:03:39;;;;;;;;;;;;;;;22.36;47.59;95540.97;10324314;28;2625;-50
2022/08/22 03:08:40;;;;;;;;;;;;;;;22.41;48.05;95546.16;10325987;28;2631;-52
2022/08/22 03:13:53;;;;;;;;;;;;;;;22.42;48.07;95548.50;10324664;28;2627;-53
2022/08/22 03:19:12;;;;;;;;;;;;;;;22.42;47.65;95545.84;10322421;28;2597;-51
2022/08/22 03:24:23;;;;;;;;;;;;;;;22.40;47.89;95545.38;10321288;28;2623;-53
2022/08/22 03:29:31;;;;;;;;;;;;;;;22.35;47.84;95547.31;10320046;28;2624;-52
2022/08/22 03:34:32;;;;;;;;;;;;;;;22.36;48.05;95549.66;10322693;28;2555;-51
2022/08/22 03:39:38;;;;;;;;;;;;;;;22.36;47.57;95554.94;10320213;28;2576;-48
2022/08/22 03:44:57;;;;;;;;;;;;;;;22.37;47.86;95551.25;10322039;28;2654;-53
2022/08/22 03:50:13;;;;;;;;;;;;;;;22.34;47.60;95558.97;10323860;28;2148;-51
2022/08/22 03:55:19;;;;;;;;;;;;;;;22.35;47.91;95550.75;10322021;28;3017;-48
2022/08/22 04:00:36;;;;;;;;;;;;;;;22.38;47.92;95560.72;10321528;28;2655;-49
2022/08/22 04:05:55;;;;;;;;;;;;;;;22.38;47.90;95573.94;10320678;28;2627;-54
2022/08/22 04:10:55;;;;;;;;;;;;;;;22.38;47.63;95570.53;10320871;28;2636;-49
2022/08/22 04:16:14;;;;;;;;;;;;;;;22.32;47.58;95558.44;10321425;28;2579;-51
2022/08/22 04:21:20;;;;;;;;;;;;;;;22.34;47.79;95565.00;10321890;28;2584;-48
2022/08/22 04:26:40;;;;;;;;;;;;;;;22.35;47.72;95566.59;10322012;28;2756;-51
2022/08/22 04:31:45;;;;;;;;;;;;;;;22.34;48.03;95557.09;10334579;28;2074;-50
2022/08/22 04:36:45;;;;;;;;;;;;;;;22.34;47.85;95556.31;10321240;28;2549;-51
2022/08/22 04:41:57;;;;;;;;;;;;;;;22.31;47.88;95557.69;10320719;28;2201;-48
2022/08/22 04:47:09;;;;;;;;;;;;;;;22.29;47.74;95557.19;10317897;28;2631;-51
2022/08/22 04:52:13;;;;;;;;;;;;;;;22.28;47.70;95562.72;10331096;28;2615;-50
2022/08/22 04:57:15;;;;;;;;;;;;;;;22.29;47.92;95572.25;10327845;28;2635;-49
2022/08/22 05:02:20;;;;;;;;;;;;;;;22.23;47.96;95576.81;10328065;28;2663;-50
2022/08/22 05:07:21;;;;;;;;;;;;;;;22.18;48.12;95571.63;10329347;28;2568;-52
2022/08/22 05:12:25;;;;;;;;;;;;;;;22.13;48.25;95579.63;10327049;28;2610;-51
2022/08/22 05:17:26;;;;;;;;;;;;;;;22.09;48.30;95586.53;10328848;28;2624;-50
2022/08/22 05:22:27;;;;;;;;;;;;;;;22.05;48.19;95590.81;10328588;28;2685;-50
2022/08/22 05:27:29;;;;;;;;;;;;;;;22.09;48.30;95593.69;10327459;28;2705;-51
2022/08/22 05:32:31;;;;;;;;;;;;;;;22.11;48.53;95589.69;10326097;28;2603;-52
2022/08/22 05:37:42;;;;;;;;;;;;;;;22.15;48.48;95587.25;10321958;28;2603;-49
2022/08/22 05:42:42;;;;;;;;;;;;;;;22.18;48.69;95589.28;10327015;28;2648;-48
2022/08/22 05:47:49;;;;;;;;;;;;;;;22.21;48.31;95610.66;10325486;28;2597;-50
2022/08/22 05:53:08;;;;;;;;;;;;;;;22.22;48.60;95608.78;10328737;28;2545;-51
2022/08/22 05:58:20;;;;;;;;;;;;;;;22.22;48.51;95616.69;10328158;28;2171;-49
2022/08/22 06:03:31;;;;;;;;;;;;;;;22.25;48.70;95608.22;10324818;28;2652;-48
2022/08/22 06:08:33;;;;;;;;;;;;;;;22.21;48.74;95607.22;10320649;28;2632;-48
2022/08/22 06:13:36;;;;;;;;;;;;;;;22.24;48.89;95614.56;10325740;28;2658;-52
2022/08/22 06:18:36;;;;;;;;;;;;;;;22.24;48.66;95610.06;10327190;28;2549;-52
2022/08/22 06:23:57;;;;;;;;;;;;;;;22.25;48.41;95609.00;10323752;28;2601;-48
2022/08/22 06:28:58;;;;;;;;;;;;;;;22.28;48.69;95613.69;10326412;28;2691;-52
2022/08/22 06:33:58;;;;;;;;;;;;;;;22.25;49.05;95611.66;10325326;28;2149;-50
2022/08/22 06:39:15;;;;;;;;;;;;;;;22.24;48.89;95612.69;10320644;28;2687;-47
2022/08/22 06:44:16;;;;;;;;;;;;;;;22.27;48.80;95620.06;10317000;28;2572;-48
2022/08/22 06:49:16;;;;;;;;;;;;;;;22.32;49.09;95614.69;10327539;28;2644;-51
2022/08/22 06:54:17;;;;;;;;;;;;;;;22.35;49.17;95615.97;10324718;28;2747;-50
2022/08/22 06:59:21;;;;;;;;;;;;;;;22.39;49.15;95620.41;10322571;28;2124;-51
2022/08/22 07:04:25;;;;;;;;;;;;;;;22.40;49.20;95619.31;10291779;28;1861;-51
2022/08/22 07:09:27;;;;;;;;;;;;;;;22.44;49.17;95622.19;10322024;28;2609;-49
2022/08/22 07:14:28;;;;;;;;;;;;;;;22.47;49.18;95625.03;10316745;28;2259;-51
2022/08/22 07:19:29;;;;;;;;;;;;;;;22.49;48.94;95627.38;10321097;28;2821;-51
2022/08/22 07:24:30;;;;;;;;;;;;;;;22.49;49.20;95620.25;10323796;28;2947;-52
2022/08/22 07:29:30;;;;;;;;;;;;;;;22.51;48.98;95623.38;10319867;28;2643;-49
2022/08/22 07:34:38;;;;;;;;;;;;;;;22.53;49.09;95623.88;10324850;28;2663;-47
2022/08/22 07:39:45;;;;;;;;;;;;;;;22.52;48.91;95616.25;10318387;28;2654;-49
2022/08/22 07:45:00;;;;;;;;;;;;;;;22.49;48.67;95617.59;10324654;28;2169;-47
2022/08/22 07:50:03;;;;;;;;;;;;;;;22.48;48.40;95608.09;10324208;28;2086;-48
2022/08/22 07:55:11;;;;;;;;;;;;;;;22.51;48.54;95610.16;10321661;28;2194;-51
2022/08/22 08:00:13;;;;;;;;;;;;;;;22.55;48.45;95616.44;10320191;28;2618;-51
2022/08/22 08:05:13;;;;;;;;;;;;;;;22.54;48.36;95608.81;10320860;28;2702;-52
2022/08/22 08:10:16;;;;;;;;;;;;;;;22.57;48.34;95614.31;10322830;28;2669;-52
2022/08/22 08:15:20;;;;;;;;;;;;;;;22.58;48.26;95615.13;10320648;28;2723;-50
2022/08/22 08:20:22;;;;;;;;;;;;;;;22.59;48.11;95617.47;10317867;28;2623;-50
2022/08/22 08:25:24;;;;;;;;;;;;;;;22.59;47.69;95619.31;10321408;28;2667;-49
2022/08/22 08:30:43;;;;;;;;;;;;;;;22.54;46.83;95612.25;10322096;28;2182;-54
2022/08/22 08:35:48;;;;;;;;;;;;;;;22.48;46.43;95610.72;10317236;28;2629;-49
2022/08/22 08:40:51;;;;;;;;;;;;;;;22.46;46.30;95604.97;10318028;28;2734;-51
2022/08/22 08:46:10;;;;;;;;;;;;;;;22.50;46.00;95605.19;10322694;28;2627;-49
2022/08/22 08:51:11;;;;;;;;;;;;;;;22.50;45.04;95608.59;10318878;28;2580;-51
2022/08/22 08:56:31;;;;;;;;;;;;;;;22.43;44.65;95602.13;10320105;28;2568;-53
2022/08/22 09:01:45;;;;;;;;;;;;;;;22.36;43.85;95604.34;10319088;28;2617;-52
2022/08/22 09:06:48;;;;;;;;;;;;;;;22.33;43.67;95594.34;10319816;28;2715;-52
2022/08/22 09:11:49;;;;;;;;;;;;;;;22.39;43.87;95590.56;10314237;28;2633;-51
2022/08/22 09:16:49;;;;;;;;;;;;;;;22.44;43.99;95599.19;10320925;28;2179;-52
2022/08/22 09:21:54;;;;;;;;;;;;;;;22.47;43.52;95603.09;10319949;28;2547;-50
2022/08/22 09:26:56;;;;;;;;;;;;;;;22.45;42.87;95597.31;10320344;28;2649;-49
2022/08/22 09:32:11;;;;;;;;;;;;;;;22.46;42.79;95597.03;10318463;28;2636;-52
2022/08/22 09:37:16;;;;;;;;;;;;;;;22.44;42.34;95596.53;10325484;28;2184;-50
2022/08/22 09:42:20;;;;;;;;;;;;;;;22.47;42.67;95587.25;10326455;28;2164;-48
2022/08/22 09:47:33;;;;;;;;;;;;;;;22.49;42.51;95593.81;10327778;28;2621;-51
2022/08/22 09:52:46;;;;;;;;;;;;;;;22.53;41.42;95597.47;10323085;28;2644;-52
2022/08/22 09:57:49;;;;;;;;;;;;;;;22.47;41.69;95590.69;10326012;28;2541;-52
2022/08/22 10:03:19;;;;;;;;;;;;;;;22.52;41.42;95598.50;10325598;28;2135;-53
2022/08/22 10:08:30;;;;;;;;;;;;;;;22.55;41.77;95595.31;10308827;28;2952;-52
2022/08/22 10:13:34;;;;;;;;;;;;;;;22.59;41.73;95584.97;10324041;28;3035;-53
2022/08/22 10:18:57;;;;;;;;;;;;;;;22.62;41.89;95600.25;10326623;28;2625;-53
2022/08/22 10:24:00;;;;;;;;;;;;;;;22.59;40.27;95596.31;10320103;28;2726;-52
2022/08/22 10:29:06;;;;;;;;;;;;;;;22.60;40.55;95595.28;10325022;28;2253;-53
2022/08/22 10:34:08;;;;;;;;;;;;;;;22.63;41.22;95583.31;10326570;28;2718;-50
2022/08/22 10:39:09;;;;;;;;;;;;;;;22.70;40.96;95585.59;10325678;28;2117;-51
2022/08/22 10:44:17;;;;;;;;;;;;;;;22.72;41.48;95584.22;10329616;28;2634;-52
2022/08/22 10:49:18;;;;;;;;;;;;;;;22.73;40.99;95580.50;10322585;28;2674;-51
2022/08/22 10:54:43;;;;;;;;;;;;;;;22.77;40.88;95586.78;10323296;28;2699;-52
2022/08/22 10:59:52;;;;;;;;;;;;;;;22.73;40.68;95585.03;10319702;28;2648;-51
2022/08/22 11:05:12;;;;;;;;;;;;;;;22.76;40.82;95582.56;10323280;28;2561;-51
2022/08/22 11:10:22;;;;;;;;;;;;;;;22.76;40.39;95589.72;10323854;28;2797;-53
2022/08/22 11:15:43;;;;;;;;;;;;;;;22.78;40.50;95596.28;10325098;28;2677;-49
2022/08/22 11:20:56;;;;;;;;;;;;;;;22.74;39.70;95582.06;10322957;28;2585;-53
2022/08/22 11:25:56;;;;;;;;;;;;;;;22.81;40.42;95582.50;10321027;28;2488;-48
2022/08/22 11:30:56;;;;;;;;;;;;;;;22.83;40.21;95595.41;10321162;28;2675;-51
2022/08/22 11:36:15;;;;;;;;;;;;;;;22.80;39.95;95591.47;10318081;28;2720;-53
2022/08/22 11:41:16;;;;;;;;;;;;;;;22.81;40.04;95597.56;10321252;28;2595;-50
2022/08/22 11:46:18;;;;;;;;;;;;;;;22.81;39.76;95595.72;10320494;28;2848;-51
2022/08/22 11:51:21;;;;;;;;;;;;;;;22.79;39.33;95582.00;10318585;28;2675;-50
2022/08/22 11:56:24;;;;;;;;;;;;;;;22.81;39.45;95582.50;10317174;28;2574;-51
2022/08/22 12:01:30;;;;;;;;;;;;;;;22.77;38.33;95584.16;10322567;28;2661;-51
2022/08/22 12:06:31;;;;;;;;;;;;;;;22.79;38.64;95591.78;10304886;28;2632;-50
2022/08/22 12:11:51;;;;;;;;;;;;;;;22.74;38.01;95578.66;10321031;28;2628;-52
2022/08/22 12:17:04;;;;;;;;;;;;;;;22.77;38.71;95578.06;10322090;28;2524;-51
2022/08/22 12:22:05;;;;;;;;;;;;;;;22.83;38.90;95587.47;10322647;28;2604;-52
2022/08/22 12:27:34;;;;;;;;;;;;;;;22.84;38.73;95567.88;10318751;28;2157;-49
2022/08/22 12:32:41;;;;;;;;;;;;;;;22.81;38.09;95571.94;10298517;28;2623;-49
2022/08/22 12:37:47;;;;;;;;;;;;;;;22.82;37.79;95565.53;10317393;28;2568;-50
2022/08/22 12:42:51;;;;;;;;;;;;;;;22.80;37.96;95553.69;10319330;28;2732;-50
2022/08/22 12:48:01;;;;;;;;;;;;;;;22.75;36.96;95564.38;10321058;28;2588;-49
2022/08/22 12:53:02;;;;;;;;;;;;;;;22.74;37.05;95554.88;10315568;28;2636;-50
2022/08/22 12:58:06;;;;;;;;;;;;;;;22.76;37.39;95547.44;10322060;28;2156;-52
2022/08/22 13:03:08;;;;;;;;;;;;;;;22.78;37.31;95530.22;10319852;28;2651;-49
2022/08/22 13:08:10;;;;;;;;;;;;;;;22.80;37.66;95538.63;10317964;28;2729;-51
2022/08/22 13:13:12;;;;;;;;;;;;;;;22.83;37.51;95547.84;10329344;28;2623;-50
2022/08/22 13:18:20;;;;;;;;;;;;;;;22.79;36.57;95549.50;10328648;28;2564;-51
2022/08/22 13:23:22;;;;;;;;;;;;;;;22.81;36.87;95539.41;10327846;28;2625;-51
2022/08/22 13:28:22;;;;;;;;;;;;;;;22.84;37.17;95536.19;10328704;28;2615;-50
2022/08/22 13:33:27;;;;;;;;;;;;;;;22.85;37.96;95527.97;10327662;28;2617;-51
2022/08/22 13:38:29;;;;;;;;;;;;;;;22.88;37.15;95542.44;10323693;28;2755;-52
2022/08/22 13:43:30;;;;;;;;;;;;;;;22.87;37.51;95533.75;10326639;28;2214;-51
2022/08/22 13:48:50;;;;;;;;;;;;;;;22.89;37.29;95528.16;10323970;28;2632;-48
2022/08/22 13:53:53;;;;;;;;;;;;;;;22.89;37.47;95531.59;10327128;28;2581;-49
2022/08/22 13:58:55;;;;;;;;;;;;;;;22.92;37.86;95519.63;10326365;28;2671;-49
2022/08/22 14:04:08;;;;;;;;;;;;;;;22.96;37.71;95525.91;10323912;28;2786;-47
2022/08/22 14:09:20;;;;;;;;;;;;;;;22.98;37.57;95519.25;10324066;28;2673;-51
2022/08/22 14:14:24;;;;;;;;;;;;;;;22.97;37.96;95516.91;10329223;28;2567;-53
2022/08/22 14:19:28;;;;;;;;;;;;;;;22.98;37.96;95515.84;10324977;28;2637;-47
2022/08/22 14:24:30;;;;;;;;;;;;;;;22.96;37.64;95534.63;10321602;28;2230;-53
2022/08/22 14:29:47;;;;;;;;;;;;;;;22.92;37.10;95523.06;10325470;28;2664;-51
2022/08/22 14:34:53;;;;;;;;;;;;;;;22.90;36.90;95516.50;10326462;28;2268;-49
2022/08/22 14:39:55;;;;;;;;;;;;;;;22.89;37.07;95515.75;10322668;28;2688;-49
2022/08/22 14:45:02;;;;;;;;;;;;;;;22.91;37.10;95518.88;10324452;28;2579;-52
2022/08/22 14:50:08;;;;;;;;;;;;;;;22.92;37.45;95523.06;10322514;28;2546;-51
2022/08/22 14:55:09;;;;;;;;;;;;;;;22.93;37.59;95514.06;10323949;28;2199;-49
2022/08/22 15:00:12;;;;;;;;;;;;;;;22.97;37.51;95516.91;10321257;28;2603;-49
2022/08/22 15:05:14;;;;;;;;;;;;;;;22.92;37.08;95509.84;10319048;28;2622;-50
2022/08/22 15:10:21;;;;;;;;;;;;;;;22.91;37.05;95518.09;10324970;28;2229;-49
2022/08/22 15:15:38;;;;;;;;;;;;;;;22.92;37.22;95515.13;10325604;28;2176;-48
2022/08/22 15:20:38;;;;;;;;;;;;;;;22.91;37.11;95520.72;10321590;28;2712;-48
2022/08/22 15:25:39;;;;;;;;;;;;;;;22.90;37.53;95519.16;10325067;28;2129;-49
2022/08/22 15:30:40;;;;;;;;;;;;;;;22.88;37.31;95527.38;10313442;28;2619;-49
2022/08/22 15:35:41;;;;;;;;;;;;;;;22.86;37.56;95518.16;10323494;28;2594;-48
2022/08/22 15:40:42;;;;;;;;;;;;;;;22.89;37.67;95518.38;10319272;28;2755;-48
2022/08/22 15:45:43;;;;;;;;;;;;;;;22.88;37.85;95524.72;10321964;28;2603;-47
2022/08/22 15:51:00;;;;;;;;;;;;;;;22.87;37.63;95525.81;10320328;28;2125;-48
2022/08/22 15:56:01;;;;;;;;;;;;;;;22.81;38.10;95531.50;10319739;28;2565;-48
2022/08/22 16:01:07;;;;;;;;;;;;;;;22.81;37.99;95534.13;10321989;28;2577;-50
2022/08/22 16:06:08;;;;;;;;;;;;;;;22.83;38.21;95543.34;10320705;28;2931;-50
2022/08/22 16:11:11;;;;;;;;;;;;;;;22.78;38.41;95545.28;10313968;28;2643;-48
2022/08/22 16:16:38;;;;;;;;;;;;;;;22.84;38.84;95542.25;10318903;28;2640;-52
2022/08/22 16:21:38;;;;;;;;;;;;;;;22.87;38.60;95554.09;10290541;28;2653;-50
2022/08/22 16:26:42;;;;;;;;;;;;;;;22.79;38.21;95557.44;10314635;28;2589;-50
2022/08/22 16:31:42;;;;;;;;;;;;;;;22.76;37.96;95555.34;10316920;28;2693;-53
2022/08/22 16:36:43;;;;;;;;;;;;;;;22.75;37.68;95559.09;10320566;28;2165;-52
2022/08/22 16:41:43;;;;;;;;;;;;;;;22.82;38.50;95562.13;10318382;28;2615;-48
2022/08/22 16:46:44;;;;;;;;;;;;;;;22.78;38.09;95566.41;10319694;28;2640;-49
2022/08/22 16:52:03;;;;;;;;;;;;;;;22.73;37.46;95563.88;10325481;28;2315;-51
2022/08/22 16:57:09;;;;;;;;;;;;;;;22.67;36.40;95566.59;10327465;28;2595;-50
2022/08/22 17:02:13;;;;;;;;;;;;;;;22.62;36.27;95573.84;10326311;28;2607;-52
2022/08/22 17:07:14;;;;;;;;;;;;;;;22.60;36.08;95574.13;10329937;28;2605;-50
2022/08/22 17:12:33;;;;;;;;;;;;;;;22.59;36.43;95569.13;10328538;28;2710;-52
2022/08/22 17:17:39;;;;;;;;;;;;;;;22.58;36.00;95570.22;10325353;28;2726;-47
2022/08/22 17:22:46;;;;;;;;;;;;;;;22.55;36.41;95576.81;10308415;28;2552;-48
2022/08/22 17:27:50;;;;;;;;;;;;;;;22.56;36.25;95580.25;10327332;28;2109;-51
2022/08/22 17:32:56;;;;;;;;;;;;;;;22.57;36.57;95577.31;10325371;28;2677;-49
2022/08/22 17:38:17;;;;;;;;;;;;;;;22.58;36.84;95580.78;10326083;28;2665;-47
2022/08/22 17:43:25;;;;;;;;;;;;;;;22.60;36.99;95587.34;10322991;28;2679;-51
2022/08/22 17:48:27;;;;;;;;;;;;;;;22.61;36.87;95585.47;10316498;28;2622;-52
2022/08/22 17:53:30;;;;;;;;;;;;;;;22.57;36.93;95590.53;10319413;28;2152;-51
2022/08/22 17:58:32;;;;;;;;;;;;;;;22.52;36.88;95585.31;10325539;28;2528;-48
2022/08/22 18:03:34;;;;;;;;;;;;;;;22.47;36.86;95587.25;10320916;28;2666;-48
2022/08/22 18:08:39;;;;;;;;;;;;;;;22.45;36.66;95584.91;10322471;28;2616;-51
2022/08/22 18:13:40;;;;;;;;;;;;;;;22.46;37.27;95591.75;10325119;28;2125;-52
2022/08/22 18:18:49;;;;;;;;;;;;;;;22.50;37.37;95597.25;10323677;28;2553;-50
2022/08/22 18:23:51;;;;;;;;;;;;;;;22.52;37.74;95593.22;10326708;28;2545;-51
2022/08/22 18:28:56;;;;;;;;;;;;;;;22.49;38.18;95588.53;10325443;28;2698;-51
2022/08/22 18:34:02;;;;;;;;;;;;;;;22.53;38.41;95592.19;10324493;28;2701;-50
2022/08/22 18:39:06;;;;;;;;;;;;;;;22.52;38.56;95595.88;10329688;28;2547;-50
2022/08/22 18:44:20;;;;;;;;;;;;;;;22.54;38.75;95593.75;10324616;28;2665;-52
2022/08/22 18:49:20;;;;;;;;;;;;;;;22.51;38.85;95606.75;10325769;28;2613;-50
2022/08/22 18:54:24;;;;;;;;;;;;;;;22.50;38.98;95608.59;10325017;28;2157;-51
2022/08/22 18:59:25;;;;;;;;;;;;;;;22.51;39.11;95606.75;10322410;28;2181;-49
2022/08/22 19:04:39;;;;;;;;;;;;;;;22.48;39.21;95616.00;10319521;28;2542;-49
2022/08/22 19:09:39;;;;;;;;;;;;;;;22.48;39.03;95610.72;10319173;28;2614;-50
2022/08/22 19:14:46;;;;;;;;;;;;;;;22.48;39.36;95626.59;10322045;28;2691;-49
2022/08/22 19:25:13;;;;;;;;;;;;;;;22.46;39.28;95634.00;10322979;28;2639;-51
2022/08/22 19:30:43;;;;;;;;;;;;;;;22.45;39.23;95637.75;10319759;28;1886;-47
2022/08/22 19:35:49;;;;;;;;;;;;;;;22.42;39.13;95638.31;10303066;28;2662;-50
2022/08/22 19:40:52;;;;;;;;;;;;;;;22.40;38.98;95635.16;10321091;28;2919;-49
2022/08/22 19:45:53;;;;;;;;;;;;;;;22.35;39.40;95645.03;10319113;28;2586;-51
2022/08/22 19:51:06;;;;;;;;;;;;;;;22.36;39.94;95652.66;10318228;28;2501;-50
2022/08/22 19:56:12;;;;;;;;;;;;;;;22.33;40.22;95645.31;10317470;28;2684;-47
2022/08/22 20:01:22;;;;;;;;;;;;;;;22.34;39.91;95652.16;10313480;28;2601;-50
2022/08/22 20:06:26;;;;;;;;;;;;;;;22.35;39.77;95653.75;10316821;28;2199;-48
2022/08/22 20:11:56;;;;;;;;;;;;;;;22.35;39.70;95658.22;10314966;28;2180;-50
2022/08/22 20:17:31;;;;;;;;;;;;;;;22.33;39.81;95657.72;10274679;28;3041;-47
2022/08/22 20:22:35;;;;;;;;;;;;;;;22.32;39.57;95654.31;10267029;28;3017;-47
2022/08/22 20:27:42;;;;;;;;;;;;;;;22.33;39.79;95658.53;10315999;28;2934;-47
2022/08/22 20:32:42;;;;;;;;;;;;;;;22.35;39.91;95668.78;10311523;28;2902;-50
2022/08/22 20:37:42;;;;;;;;;;;;;;;22.35;39.46;95664.31;10315553;28;3011;-47
2022/08/22 20:42:44;;;;;;;;;;;;;;;22.36;39.61;95660.56;10313379;28;3040;-52
2022/08/22 20:47:47;;;;;;;;;;;;;;;22.34;39.87;95657.44;10319874;28;2512;-49
2022/08/22 20:52:47;;;;;;;;;;;;;;;22.33;39.64;95655.88;10315065;28;2827;-49
2022/08/22 20:57:51;;;;;;;;;;;;;;;22.35;39.54;95652.94;10318593;28;2437;-47
2022/08/22 21:02:52;;;;;;;;;;;;;;;22.35;39.80;95652.94;10316507;28;2897;-49
2022/08/22 21:08:15;;;;;;;;;;;;;;;22.34;39.45;95652.16;10321165;28;2853;-50
2022/08/22 21:13:23;;;;;;;;;;;;;;;22.36;39.86;95654.53;10314127;28;2448;-50
2022/08/22 21:18:28;;;;;;;;;;;;;;;22.36;39.59;95657.19;10320919;28;2922;-49
2022/08/22 21:23:28;;;;;;;;;;;;;;;22.35;39.83;95653.75;10318538;28;2492;-51
2022/08/22 21:28:49;;;;;;;;;;;;;;;22.35;39.80;95651.09;10317010;28;2857;-47
2022/08/22 21:33:49;;;;;;;;;;;;;;;22.34;40.01;95648.75;10315321;28;2930;-49
2022/08/22 21:38:51;;;;;;;;;;;;;;;22.32;39.65;95643.75;10326885;28;3060;-48
2022/08/22 21:43:52;;;;;;;;;;;;;;;22.33;39.75;95641.88;10331556;28;2891;-50
2022/08/22 21:48:56;;;;;;;;;;;;;;;22.33;39.74;95640.03;10324821;28;3090;-49
2022/08/22 21:54:15;;;;;;;;;;;;;;;22.33;39.91;95653.25;10324028;28;2907;-52
2022/08/22 21:59:24;;;;;;;;;;;;;;;22.32;39.94;95646.38;10324354;28;2835;-46
2022/08/22 22:04:24;;;;;;;;;;;;;;;22.32;40.08;95643.75;10324768;28;2974;-49
2022/08/22 22:09:25;;;;;;;;;;;;;;;22.32;39.95;95643.75;10326723;28;2863;-50
2022/08/22 22:14:25;;;;;;;;;;;;;;;22.33;40.10;95649.81;10326578;28;2875;-48
2022/08/22 22:19:25;;;;;;;;;;;;;;;22.33;40.05;95649.81;10324017;28;2849;-53
2022/08/22 22:24:26;;;;;;;;;;;;;;;22.32;40.05;95646.38;10323616;28;2900;-46
2022/08/22 22:29:27;;;;;;;;;;;;;;;22.28;40.11;95647.22;10326001;28;2930;-46
2022/08/22 22:34:27;;;;;;;;;;;;;;;22.28;40.05;95645.38;10324102;28;2895;-48
2022/08/22 22:39:27;;;;;;;;;;;;;;;22.26;40.16;95647.53;10324499;28;3043;-50
2022/08/22 22:44:28;;;;;;;;;;;;;;;22.27;39.91;95641.19;10325268;28;2840;-52
2022/08/22 22:49:28;;;;;;;;;;;;;;;22.27;39.99;95635.13;10325754;28;2918;-49
2022/08/22 22:54:28;;;;;;;;;;;;;;;22.25;40.11;95627.50;10325233;28;2424;-52
2022/08/22 22:59:29;;;;;;;;;;;;;;;22.16;40.40;95623.91;10321636;28;2479;-46
2022/08/22 23:04:30;;;;;;;;;;;;;;;22.15;40.12;95627.63;10321374;28;2932;-49
2022/08/22 23:09:30;;;;;;;;;;;;;;;22.12;40.31;95627.41;10324224;28;2875;-50
2022/08/22 23:14:31;;;;;;;;;;;;;;;22.05;40.64;95630.41;10324339;28;3017;-50
2022/08/22 23:19:31;;;;;;;;;;;;;;;22.04;40.92;95626.19;10323485;28;2832;-49
2022/08/22 23:24:31;;;;;;;;;;;;;;;22.04;40.59;95614.84;10320449;28;2934;-49
2022/08/22 23:29:32;;;;;;;;;;;;;;;22.06;41.17;95623.28;10321061;28;2889;-50
2022/08/22 23:34:33;;;;;;;;;;;;;;;22.10;41.11;95626.91;10324210;28;2895;-49
2022/08/22 23:39:34;;;;;;;;;;;;;;;22.11;40.85;95631.94;10322551;28;2844;-50
2022/08/22 23:44:34;;;;;;;;;;;;;;;22.13;40.88;95621.88;10321610;28;2890;-49
2022/08/22 23:49:35;;;;;;;;;;;;;;;22.13;40.92;95618.44;10319766;28;2826;-48
2022/08/22 23:54:35;;;;;;;;;;;;;;;22.14;41.10;95619.97;10319136;28;2998;-49
2022/08/22 23:59:36;;;;;;;;;;;;;;;22.09;41.14;95609.50;10324355;28;2427;-48
